Kaishinmaru — JI3680 — position and weather

sailwx.info

Track history (hours):
 
Tides and Currents Weather Stations Pressure Air Temp Water Temp Dewpoint Dewpoint Depression Visibility Wind Speed Wind Dir Waves Ship Positions

Kaishinmaru

Last reported at 2018-Feb-19 21:30 UTC. Time now 2018-Feb-19 21:45 UTC.
Position N 33°45' E 131°41'.

Length 27 m.

Type: Tug. MMSI: 431301512.

Date/timePositionNaut miles runAvg speedWind from/ knotsBaromVisibWave heightAir tempDewpointWater temp
2018-Feb-19 21:30N 33°45' E 131°41'611.1
2018-Feb-19 21:00N 33°47' E 131°35'611.2
2018-Feb-19 20:30N 33°48' E 131°28'611.4
2018-Feb-19 20:00N 33°49' E 131°22'611.5
2018-Feb-19 19:30N 33°50' E 131°15'611.8
2018-Feb-19 19:00N 33°53' E 131°09'611.8
2018-Feb-19 18:30N 33°57' E 131°03'5 9.6
2018-Feb-19 18:00N 33°57' E 130°57'4 7.7
2018-Feb-19 17:30N 33°55' E 130°53'5 9.5
2018-Feb-19 17:00N 33°60' E 130°52'511.0
2018-Feb-19 16:30N 34°05' E 130°51'511.0
2018-Feb-19 16:00N 34°10' E 130°50'611.3
2018-Feb-19 15:27N 34°17' E 130°49'610.6
2018-Feb-19 14:54N 34°22' E 130°49'  
2018-Feb-15 03:11N 34°19' E 130°49'2 6.3
2018-Feb-15 02:49N 34°17' E 130°49'3 6.6
2018-Feb-15 02:23N 34°14' E 130°49'2 6.4
2018-Feb-15 02:00N 34°12' E 130°50'3 6.4
2018-Feb-15 01:29N 34°08' E 130°50'3 6.1
2018-Feb-15 01:00N 34°05' E 130°51'3 5.9
2018-Feb-15 00:30N 34°03' E 130°52'2 4.4
2018-Feb-15 00:00N 34°01' E 130°53'2 4.8
2018-Feb-14 23:30N 33°58' E 130°53'4 6.6
2018-Feb-14 22:58N 33°55' E 130°54'3 7.0
2018-Feb-14 22:30N 33°57' E 130°57'3 6.7
2018-Feb-14 22:00N 33°59' E 131°00'3 6.9
2018-Feb-14 21:30N 33°57' E 131°04'3 6.8
2018-Feb-14 21:00N 33°55' E 131°07'4 7.3
2018-Feb-14 20:30N 33°53' E 131°11'4 7.2
2018-Feb-14 20:00N 33°52' E 131°15'4 7.0
2018-Feb-14 19:30N 33°51' E 131°19'3 6.8
2018-Feb-14 19:00N 33°50' E 131°23'3 6.5
2018-Feb-14 18:30N 33°50' E 131°27'3 6.1
2018-Feb-14 18:00N 33°49' E 131°31'3 6.0
2018-Feb-14 17:30N 33°49' E 131°34'3 5.8
2018-Feb-14 17:00N 33°48' E 131°38'4 5.6
2018-Feb-14 16:20N 33°48' E 131°42'47 5.3
2018-Feb-14 07:26N 34°01' E 132°37'  
2018-Feb-11 03:09N 34°28' E 134°31'210.6
2018-Feb-11 02:59N 34°29' E 134°33'510.2
2018-Feb-11 02:29N 34°31' E 134°38'510.1
2018-Feb-11 02:00N 34°33' E 134°44'510.3
2018-Feb-11 01:28N 34°35' E 134°50'510.1
2018-Feb-11 01:00N 34°36' E 134°55'510.0
2018-Feb-11 00:30N 34°37' E 135°01'510.5
2018-Feb-11 00:00N 34°36' E 135°08'611.2
2018-Feb-10 23:30N 34°37' E 135°14'510.9
2018-Feb-10 23:00N 34°38' E 135°21'510.0
2018-Feb-10 22:29N 34°39' E 135°27'1 1.6
2018-Feb-10 21:59N 34°39' E 135°28'0 0.0
2018-Feb-10 21:29N 34°39' E 135°28'0 0.0
2018-Feb-10 20:59N 34°39' E 135°28'0 0.0
2018-Feb-10 20:26N 34°39' E 135°28'0 0.0
2018-Feb-10 19:59N 34°39' E 135°28'0 0.0
2018-Feb-10 19:29N 34°39' E 135°28'0 0.0
2018-Feb-10 18:59N 34°39' E 135°28'0 0.0
2018-Feb-10 18:26N 34°39' E 135°28'0 0.0
2018-Feb-10 17:59N 34°39' E 135°28'0 0.0
2018-Feb-10 17:29N 34°39' E 135°28'0 0.0
2018-Feb-10 16:56N 34°39' E 135°28'0 0.0
2018-Feb-10 16:29N 34°39' E 135°28'0 0.0
2018-Feb-10 15:59N 34°39' E 135°28'0 0.0
2018-Feb-10 15:29N 34°39' E 135°28'0 0.0
2018-Feb-10 14:59N 34°39' E 135°28'0 0.0
2018-Feb-10 14:29N 34°39' E 135°28'0 0.0
2018-Feb-10 13:59N 34°39' E 135°28'0 0.0
2018-Feb-10 13:29N 34°39' E 135°28'0 0.0
2018-Feb-10 12:56N 34°39' E 135°28'0 0.0
2018-Feb-10 12:29N 34°39' E 135°28'0 0.0
2018-Feb-10 11:59N 34°39' E 135°28'0 0.0
2018-Feb-10 11:29N 34°39' E 135°28'0 0.0
2018-Feb-10 10:59N 34°39' E 135°28'0 0.0
2018-Feb-10 10:29N 34°39' E 135°28'0 0.0
2018-Feb-10 09:59N 34°39' E 135°28'0 0.0
2018-Feb-10 09:29N 34°39' E 135°28'0 0.0
2018-Feb-10 08:59N 34°39' E 135°28'0 0.0
2018-Feb-10 08:29N 34°39' E 135°28'0 0.0
2018-Feb-10 07:59N 34°39' E 135°28'0 0.0
2018-Feb-10 07:29N 34°39' E 135°28'0 0.0
2018-Feb-10 06:59N 34°39' E 135°28'0 0.0
2018-Feb-10 06:26N 34°39' E 135°28'0 0.0
2018-Feb-10 05:59N 34°39' E 135°28'0 0.0
2018-Feb-10 05:29N 34°39' E 135°28'0 0.0
2018-Feb-10 04:59N 34°39' E 135°28'0 0.0
2018-Feb-10 04:29N 34°39' E 135°28'0 0.0
2018-Feb-10 03:56N 34°39' E 135°28'0 0.0
2018-Feb-10 03:29N 34°39' E 135°28'0 0.0
2018-Feb-10 02:59N 34°39' E 135°28'0 0.0
2018-Feb-10 02:29N 34°39' E 135°28'0 0.0
2018-Feb-10 01:59N 34°39' E 135°28'0 0.0
2018-Feb-10 01:29N 34°39' E 135°28'0 0.0
2018-Feb-10 00:59N 34°39' E 135°28'0 0.0
2018-Feb-10 00:29N 34°39' E 135°28'0 0.0
2018-Feb-09 23:56N 34°39' E 135°28'0 0.0
2018-Feb-09 23:29N 34°39' E 135°28'0 0.0
2018-Feb-09 22:59N 34°39' E 135°28'0 0.0
2018-Feb-09 22:44N 34°39' E 135°28'  
Track history (hours):
 
Tides and Currents Weather Stations Pressure Air Temp Water Temp Dewpoint Dewpoint Depression Visibility Wind Speed Wind Dir Waves Ship Positions

Kaishinmaru

Last reported at 2018-Feb-19 21:30 UTC. Time now 2018-Feb-19 21:45 UTC.
Position N 33°45' E 131°41'.

Length 27 m.

Type: Tug. MMSI: 431301512.

Date/timePositionNaut miles runAvg speedWind from/ knotsBaromVisibWave heightAir tempDewpointWater temp
2018-Feb-19 21:30N 33°45' E 131°41'611.1
2018-Feb-19 21:00N 33°47' E 131°35'611.2
2018-Feb-19 20:30N 33°48' E 131°28'611.4
2018-Feb-19 20:00N 33°49' E 131°22'611.5
2018-Feb-19 19:30N 33°50' E 131°15'611.8
2018-Feb-19 19:00N 33°53' E 131°09'611.8
2018-Feb-19 18:30N 33°57' E 131°03'5 9.6
2018-Feb-19 18:00N 33°57' E 130°57'4 7.7
2018-Feb-19 17:30N 33°55' E 130°53'5 9.5
2018-Feb-19 17:00N 33°60' E 130°52'511.0
2018-Feb-19 16:30N 34°05' E 130°51'511.0
2018-Feb-19 16:00N 34°10' E 130°50'611.3
2018-Feb-19 15:27N 34°17' E 130°49'610.6
2018-Feb-19 14:54N 34°22' E 130°49'  
2018-Feb-15 03:11N 34°19' E 130°49'2 6.3
2018-Feb-15 02:49N 34°17' E 130°49'3 6.6
2018-Feb-15 02:23N 34°14' E 130°49'2 6.4
2018-Feb-15 02:00N 34°12' E 130°50'3 6.4
2018-Feb-15 01:29N 34°08' E 130°50'3 6.1
2018-Feb-15 01:00N 34°05' E 130°51'3 5.9
2018-Feb-15 00:30N 34°03' E 130°52'2 4.4
2018-Feb-15 00:00N 34°01' E 130°53'2 4.8
2018-Feb-14 23:30N 33°58' E 130°53'4 6.6
2018-Feb-14 22:58N 33°55' E 130°54'3 7.0
2018-Feb-14 22:30N 33°57' E 130°57'3 6.7
2018-Feb-14 22:00N 33°59' E 131°00'3 6.9
2018-Feb-14 21:30N 33°57' E 131°04'3 6.8
2018-Feb-14 21:00N 33°55' E 131°07'4 7.3
2018-Feb-14 20:30N 33°53' E 131°11'4 7.2
2018-Feb-14 20:00N 33°52' E 131°15'4 7.0
2018-Feb-14 19:30N 33°51' E 131°19'3 6.8
2018-Feb-14 19:00N 33°50' E 131°23'3 6.5
2018-Feb-14 18:30N 33°50' E 131°27'3 6.1
2018-Feb-14 18:00N 33°49' E 131°31'3 6.0
2018-Feb-14 17:30N 33°49' E 131°34'3 5.8
2018-Feb-14 17:00N 33°48' E 131°38'4 5.6
2018-Feb-14 16:20N 33°48' E 131°42'47 5.3
2018-Feb-14 07:26N 34°01' E 132°37'  
2018-Feb-11 03:09N 34°28' E 134°31'210.6
2018-Feb-11 02:59N 34°29' E 134°33'510.2
2018-Feb-11 02:29N 34°31' E 134°38'510.1
2018-Feb-11 02:00N 34°33' E 134°44'510.3
2018-Feb-11 01:28N 34°35' E 134°50'510.1
2018-Feb-11 01:00N 34°36' E 134°55'510.0
2018-Feb-11 00:30N 34°37' E 135°01'510.5
2018-Feb-11 00:00N 34°36' E 135°08'611.2
2018-Feb-10 23:30N 34°37' E 135°14'510.9
2018-Feb-10 23:00N 34°38' E 135°21'510.0
2018-Feb-10 22:29N 34°39' E 135°27'1 1.6
2018-Feb-10 21:59N 34°39' E 135°28'0 0.0
2018-Feb-10 21:29N 34°39' E 135°28'0 0.0
2018-Feb-10 20:59N 34°39' E 135°28'0 0.0
2018-Feb-10 20:26N 34°39' E 135°28'0 0.0
2018-Feb-10 19:59N 34°39' E 135°28'0 0.0
2018-Feb-10 19:29N 34°39' E 135°28'0 0.0
2018-Feb-10 18:59N 34°39' E 135°28'0 0.0
2018-Feb-10 18:26N 34°39' E 135°28'0 0.0
2018-Feb-10 17:59N 34°39' E 135°28'0 0.0
2018-Feb-10 17:29N 34°39' E 135°28'0 0.0
2018-Feb-10 16:56N 34°39' E 135°28'0 0.0
2018-Feb-10 16:29N 34°39' E 135°28'0 0.0
2018-Feb-10 15:59N 34°39' E 135°28'0 0.0
2018-Feb-10 15:29N 34°39' E 135°28'0 0.0
2018-Feb-10 14:59N 34°39' E 135°28'0 0.0
2018-Feb-10 14:29N 34°39' E 135°28'0 0.0
2018-Feb-10 13:59N 34°39' E 135°28'0 0.0
2018-Feb-10 13:29N 34°39' E 135°28'0 0.0
2018-Feb-10 12:56N 34°39' E 135°28'0 0.0
2018-Feb-10 12:29N 34°39' E 135°28'0 0.0
2018-Feb-10 11:59N 34°39' E 135°28'0 0.0
2018-Feb-10 11:29N 34°39' E 135°28'0 0.0
2018-Feb-10 10:59N 34°39' E 135°28'0 0.0
2018-Feb-10 10:29N 34°39' E 135°28'0 0.0
2018-Feb-10 09:59N 34°39' E 135°28'0 0.0
2018-Feb-10 09:29N 34°39' E 135°28'0 0.0
2018-Feb-10 08:59N 34°39' E 135°28'0 0.0
2018-Feb-10 08:29N 34°39' E 135°28'0 0.0
2018-Feb-10 07:59N 34°39' E 135°28'0 0.0
2018-Feb-10 07:29N 34°39' E 135°28'0 0.0
2018-Feb-10 06:59N 34°39' E 135°28'0 0.0
2018-Feb-10 06:26N 34°39' E 135°28'0 0.0
2018-Feb-10 05:59N 34°39' E 135°28'0 0.0
2018-Feb-10 05:29N 34°39' E 135°28'0 0.0
2018-Feb-10 04:59N 34°39' E 135°28'0 0.0
2018-Feb-10 04:29N 34°39' E 135°28'0 0.0
2018-Feb-10 03:56N 34°39' E 135°28'0 0.0
2018-Feb-10 03:29N 34°39' E 135°28'0 0.0
2018-Feb-10 02:59N 34°39' E 135°28'0 0.0
2018-Feb-10 02:29N 34°39' E 135°28'0 0.0
2018-Feb-10 01:59N 34°39' E 135°28'0 0.0
2018-Feb-10 01:29N 34°39' E 135°28'0 0.0
2018-Feb-10 00:59N 34°39' E 135°28'0 0.0
2018-Feb-10 00:29N 34°39' E 135°28'0 0.0
2018-Feb-09 23:56N 34°39' E 135°28'0 0.0
2018-Feb-09 23:29N 34°39' E 135°28'0 0.0
2018-Feb-09 22:59N 34°39' E 135°28'0 0.0
2018-Feb-09 22:44N 34°39' E 135°28'  

Dump ship's entire track history